createdAt,value
2022-12-18T00:00:25.423Z,18.70
2022-12-18T00:03:16.321Z,20.10
2022-12-18T00:05:49.863Z,20.50
2022-12-18T00:08:18.990Z,18.90
2022-12-18T00:10:47.495Z,19.40
2022-12-18T00:13:16.106Z,19.20
2022-12-18T00:15:45.110Z,19.10
2022-12-18T00:18:16.068Z,18.70
2022-12-18T00:20:47.964Z,18.50
2022-12-18T00:23:16.519Z,19.00
2022-12-18T00:25:45.097Z,17.00
2022-12-18T00:28:13.771Z,18.50
2022-12-18T00:30:42.887Z,17.90
2022-12-18T00:33:11.434Z,17.40
2022-12-18T00:35:40.772Z,16.50
2022-12-18T00:38:09.326Z,17.00
2022-12-18T00:40:37.933Z,17.60
2022-12-18T00:43:06.868Z,18.00
2022-12-18T00:45:35.433Z,19.00
2022-12-18T00:48:04.127Z,17.10
2022-12-18T00:50:34.023Z,18.80
2022-12-18T00:53:02.850Z,19.10
2022-12-18T00:55:31.382Z,18.40
2022-12-18T00:58:00.893Z,18.10
2022-12-18T01:00:30.534Z,19.30
2022-12-18T01:02:59.565Z,18.10
2022-12-18T01:05:29.452Z,18.10
2022-12-18T01:07:58.309Z,18.20
2022-12-18T01:10:27.202Z,18.90
2022-12-18T01:12:59.844Z,20.10
2022-12-18T01:15:28.507Z,18.80
2022-12-18T01:17:57.029Z,20.10
2022-12-18T01:20:26.146Z,20.30
2022-12-18T01:22:54.682Z,19.90
2022-12-18T01:25:23.284Z,19.60
2022-12-18T01:27:53.459Z,20.30
2022-12-18T01:30:22.053Z,19.20
2022-12-18T01:32:50.739Z,20.20
2022-12-18T01:35:19.417Z,19.30
2022-12-18T01:37:48.514Z,20.60
2022-12-18T01:40:17.137Z,21.10
2022-12-18T01:42:45.717Z,20.50
2022-12-18T01:45:17.047Z,21.90
2022-12-18T01:47:50.629Z,20.80
2022-12-18T01:50:24.555Z,20.10
2022-12-18T01:52:56.873Z,20.30
2022-12-18T01:55:29.282Z,20.10
2022-12-18T02:00:28.967Z,21.10
2022-12-18T02:02:58.360Z,21.20
2022-12-18T02:05:35.861Z,20.90
2022-12-18T02:08:27.475Z,22.80
2022-12-18T02:11:18.052Z,21.00
2022-12-18T02:13:46.530Z,21.10
2022-12-18T02:16:22.704Z,21.10
2022-12-18T02:18:58.987Z,20.80
2022-12-18T02:21:52.607Z,21.20
2022-12-18T02:24:55.281Z,19.90
2022-12-18T02:27:23.927Z,20.20
2022-12-18T02:29:58.865Z,20.60
2022-12-18T02:32:35.032Z,20.80
2022-12-18T02:35:06.818Z,18.80
2022-12-18T02:37:37.213Z,19.20
2022-12-18T02:40:09.539Z,19.30
2022-12-18T02:42:38.866Z,18.90
2022-12-18T02:45:09.462Z,18.30
2022-12-18T02:47:43.193Z,18.60
2022-12-18T02:50:26.742Z,17.90
2022-12-18T02:53:15.352Z,16.90
2022-12-18T02:55:58.492Z,17.40
2022-12-18T02:59:00.095Z,18.70
2022-12-18T03:01:44.304Z,16.60
2022-12-18T03:04:23.670Z,17.60
2022-12-18T03:06:56.749Z,17.20
2022-12-18T03:09:34.135Z,16.90
2022-12-18T03:12:25.089Z,17.00
2022-12-18T03:15:01.074Z,17.50
2022-12-18T03:17:33.221Z,16.80
2022-12-18T03:20:12.390Z,16.10
2022-12-18T03:22:44.242Z,14.80
2022-12-18T03:25:16.076Z,16.00
2022-12-18T03:27:50.446Z,15.50
2022-12-18T03:30:20.237Z,15.80
2022-12-18T03:33:00.555Z,16.00
2022-12-18T03:35:38.905Z,14.30
2022-12-18T03:38:08.022Z,14.90
2022-12-18T03:40:54.333Z,15.30
2022-12-18T03:43:52.226Z,14.10
2022-12-18T03:46:45.190Z,13.90
2022-12-18T03:49:49.222Z,13.50
2022-12-18T03:52:27.812Z,13.90
2022-12-18T03:55:00.866Z,14.00
2022-12-18T03:57:32.554Z,12.50
2022-12-18T04:00:14.168Z,12.60
2022-12-18T04:02:49.485Z,13.10
2022-12-18T04:05:25.280Z,12.40
2022-12-18T04:07:55.725Z,13.20
2022-12-18T04:10:25.002Z,14.00
2022-12-18T04:12:57.438Z,12.70
2022-12-18T04:15:26.495Z,12.30
2022-12-18T04:17:55.314Z,12.50
2022-12-18T04:20:25.409Z,12.60
2022-12-18T04:22:55.390Z,11.10
2022-12-18T04:25:24.226Z,11.40
2022-12-18T04:27:59.682Z,11.00
2022-12-18T04:30:28.252Z,11.90
2022-12-18T04:32:56.793Z,11.70
2022-12-18T04:35:25.586Z,10.80
2022-12-18T04:37:54.124Z,11.70
2022-12-18T04:40:22.662Z,10.90
2022-12-18T04:42:52.805Z,11.50
2022-12-18T04:45:21.383Z,9.60
2022-12-18T04:47:49.914Z,10.60
2022-12-18T04:50:19.035Z,10.30
2022-12-18T04:52:47.599Z,11.10
2022-12-18T04:55:16.400Z,10.50
2022-12-18T04:57:45.290Z,10.40
2022-12-18T05:00:14.465Z,10.50
2022-12-18T05:02:43.133Z,10.40
2022-12-18T05:05:12.058Z,10.50
2022-12-18T05:07:40.749Z,10.60
2022-12-18T05:10:10.774Z,10.10
2022-12-18T05:13:00.980Z,10.90
2022-12-18T05:15:31.751Z,8.50
2022-12-18T05:18:01.108Z,9.30
2022-12-18T05:20:29.817Z,9.00
2022-12-18T05:22:58.949Z,9.30
2022-12-18T05:25:28.231Z,8.70
2022-12-18T05:27:56.686Z,9.10
2022-12-18T05:30:25.921Z,8.10
2022-12-18T05:32:55.257Z,8.10
2022-12-18T05:35:23.928Z,8.60
2022-12-18T05:37:52.437Z,9.30
2022-12-18T05:40:21.149Z,8.10
2022-12-18T05:42:49.666Z,7.80
2022-12-18T05:45:18.603Z,9.40
2022-12-18T05:47:47.265Z,8.30
2022-12-18T05:50:16.546Z,8.00
2022-12-18T05:52:45.140Z,9.20
2022-12-18T05:55:13.745Z,7.90
2022-12-18T05:57:42.524Z,8.20
2022-12-18T06:00:12.030Z,8.80
2022-12-18T06:05:12.547Z,8.40
2022-12-18T06:07:41.678Z,8.10
2022-12-18T06:10:10.291Z,7.80
2022-12-18T06:12:38.932Z,8.60
2022-12-18T06:15:08.331Z,8.20
2022-12-18T06:17:38.110Z,8.00
2022-12-18T06:20:08.065Z,9.00
2022-12-18T06:22:36.630Z,8.10
2022-12-18T06:25:07.101Z,8.80
2022-12-18T06:27:36.526Z,8.70
2022-12-18T06:30:06.229Z,9.70
2022-12-18T06:32:34.983Z,9.30
2022-12-18T06:35:03.713Z,8.90
2022-12-18T06:37:32.842Z,9.50
2022-12-18T06:40:02.129Z,9.40
2022-12-18T06:42:30.946Z,10.00
2022-12-18T06:44:59.448Z,9.70
2022-12-18T06:47:28.044Z,9.70
2022-12-18T06:49:56.705Z,9.80
2022-12-18T06:52:25.208Z,9.60
2022-12-18T06:54:54.130Z,10.20
2022-12-18T06:57:22.787Z,10.60
2022-12-18T06:59:51.433Z,10.30
2022-12-18T07:02:21.511Z,10.40
2022-12-18T07:04:50.186Z,10.70
2022-12-18T07:07:18.876Z,11.10
2022-12-18T07:09:47.491Z,10.60
2022-12-18T07:12:16.026Z,9.90
2022-12-18T07:14:44.809Z,10.60
2022-12-18T07:17:14.032Z,10.50
2022-12-18T07:19:42.601Z,10.30
2022-12-18T07:22:11.104Z,10.80
2022-12-18T07:24:39.774Z,10.40
2022-12-18T07:27:08.251Z,11.50
2022-12-18T07:29:37.399Z,10.40
2022-12-18T07:32:06.784Z,10.60
2022-12-18T07:34:35.988Z,10.00
2022-12-18T07:37:05.922Z,11.30
2022-12-18T07:39:34.534Z,11.70
2022-12-18T07:42:23.378Z,10.70
2022-12-18T08:00:47.735Z,11.20
2022-12-18T08:03:17.418Z,12.40
2022-12-18T08:05:45.754Z,13.10
2022-12-18T08:08:14.101Z,12.60
2022-12-18T08:10:42.602Z,12.70
2022-12-18T08:13:10.844Z,12.60
2022-12-18T08:15:39.124Z,12.40
2022-12-18T08:18:12.675Z,13.10
2022-12-18T08:20:42.748Z,13.20
2022-12-18T08:23:11.252Z,12.50
2022-12-18T08:25:39.468Z,12.40
2022-12-18T08:28:07.990Z,13.40
2022-12-18T08:30:37.167Z,13.70
2022-12-18T08:33:06.170Z,13.50
2022-12-18T08:35:44.047Z,14.60
2022-12-18T08:38:14.000Z,14.50
2022-12-18T08:40:42.398Z,14.60
2022-12-18T08:43:34.667Z,15.40
2022-12-18T08:46:03.246Z,15.40
2022-12-18T08:48:31.624Z,14.90
2022-12-18T08:51:00.838Z,15.80
2022-12-18T08:53:34.156Z,14.80
2022-12-18T08:56:04.744Z,15.60
2022-12-18T08:58:33.624Z,17.20
2022-12-18T09:01:04.662Z,15.60
2022-12-18T09:03:34.629Z,15.50
2022-12-18T09:06:03.359Z,16.60
2022-12-18T09:08:31.748Z,17.10
2022-12-18T09:11:03.004Z,17.70
2022-12-18T09:13:31.383Z,17.50
2022-12-18T09:15:59.949Z,17.40
2022-12-18T09:18:28.219Z,17.30
2022-12-18T09:20:56.772Z,16.60
2022-12-18T09:23:25.084Z,17.40
2022-12-18T09:26:00.665Z,17.50
2022-12-18T09:28:29.008Z,16.80
2022-12-18T09:30:57.557Z,17.50
2022-12-18T09:33:26.136Z,17.00
2022-12-18T09:35:54.496Z,19.10
2022-12-18T09:38:24.232Z,17.50
2022-12-18T09:40:59.905Z,17.80
2022-12-18T09:43:46.362Z,15.80
2022-12-18T09:46:26.669Z,16.10
2022-12-18T09:49:00.220Z,17.70
2022-12-18T09:51:37.334Z,17.20
2022-12-18T09:54:11.769Z,17.10
2022-12-18T09:56:43.680Z,15.00
2022-12-18T09:59:37.097Z,14.90
2022-12-18T10:02:35.104Z,16.00
2022-12-18T10:05:26.583Z,15.60
2022-12-18T10:08:04.327Z,14.60
2022-12-18T10:10:55.810Z,13.50
2022-12-18T10:13:36.332Z,15.20
2022-12-18T10:16:17.332Z,14.90
2022-12-18T10:19:04.808Z,15.00
2022-12-18T10:22:03.926Z,14.60
2022-12-18T10:24:37.083Z,14.00
2022-12-18T10:27:17.525Z,16.20
2022-12-18T10:29:47.259Z,13.90
2022-12-18T10:32:30.639Z,15.40
2022-12-18T10:35:00.665Z,13.70
2022-12-18T10:37:30.959Z,14.90
2022-12-18T10:40:18.448Z,14.70
2022-12-18T10:43:15.602Z,13.90
2022-12-18T10:46:00.297Z,14.00
2022-12-18T10:48:31.104Z,14.60
2022-12-18T10:51:10.949Z,14.40
2022-12-18T10:53:44.122Z,14.10
2022-12-18T10:56:13.500Z,15.50
2022-12-18T10:58:42.171Z,14.80
2022-12-18T11:01:18.268Z,14.10
2022-12-18T11:04:01.631Z,13.80
2022-12-18T11:06:30.774Z,14.10
2022-12-18T11:09:06.690Z,15.30
2022-12-18T11:11:39.497Z,13.70
2022-12-18T11:14:19.358Z,14.60
2022-12-18T11:17:23.906Z,13.80
2022-12-18T11:19:41.080Z,12.60
2022-12-18T11:22:27.655Z,13.30
2022-12-18T11:27:57.400Z,12.60
2022-12-18T11:30:34.459Z,12.10
2022-12-18T11:33:13.199Z,12.10
2022-12-18T11:36:04.762Z,11.40
2022-12-18T11:38:43.828Z,11.30
2022-12-18T11:41:55.879Z,12.30
2022-12-18T11:44:29.837Z,11.10
2022-12-18T11:47:04.744Z,12.30
2022-12-18T11:49:37.384Z,12.00
2022-12-18T11:54:33.789Z,11.00
2022-12-18T11:57:04.934Z,11.80
2022-12-18T11:59:49.268Z,10.40
2022-12-18T12:02:36.200Z,10.90
2022-12-18T12:05:10.703Z,10.50
2022-12-18T12:08:17.488Z,10.30
2022-12-18T12:11:01.949Z,9.60
2022-12-18T12:13:51.961Z,9.80
2022-12-18T12:16:29.890Z,9.10
2022-12-18T12:19:17.400Z,9.80
2022-12-18T12:21:58.403Z,8.80
2022-12-18T12:24:40.720Z,8.70
2022-12-18T12:27:36.849Z,8.10
2022-12-18T12:30:15.657Z,8.30
2022-12-18T12:32:53.276Z,9.40
2022-12-18T12:35:37.420Z,8.00
2022-12-18T12:38:14.092Z,8.70
2022-12-18T12:40:55.281Z,8.10
2022-12-18T12:43:50.223Z,8.20
2022-12-18T12:46:22.865Z,7.90
2022-12-18T12:48:56.749Z,7.60
2022-12-18T12:51:32.168Z,6.70
2022-12-18T12:54:02.779Z,7.10
2022-12-18T12:56:51.501Z,6.80
2022-12-18T12:59:22.597Z,6.40
2022-12-18T13:02:00.801Z,7.20
2022-12-18T13:04:43.636Z,6.30
2022-12-18T13:07:29.903Z,6.50
2022-12-18T13:10:39.119Z,6.60
2022-12-18T13:13:47.566Z,5.20
2022-12-18T13:16:09.278Z,6.40
2022-12-18T13:18:37.980Z,6.10
2022-12-18T13:21:22.945Z,6.40
2022-12-18T13:23:52.266Z,6.60
2022-12-18T13:26:28.134Z,5.80
2022-12-18T13:28:59.371Z,6.60
2022-12-18T13:31:43.532Z,7.30
2022-12-18T13:34:28.294Z,5.90
2022-12-18T13:37:32.669Z,6.90
2022-12-18T13:40:01.455Z,6.00
2022-12-18T13:42:58.179Z,7.20
2022-12-18T13:45:39.907Z,7.00
2022-12-18T13:48:19.274Z,7.80
2022-12-18T13:50:56.204Z,7.70
2022-12-18T13:53:53.008Z,7.40
2022-12-18T13:56:27.753Z,8.60
2022-12-18T13:59:14.067Z,7.80
2022-12-18T14:01:45.156Z,7.90
2022-12-18T14:04:20.819Z,8.10
2022-12-18T14:06:52.551Z,7.90
2022-12-18T14:09:37.355Z,8.00
2022-12-18T14:12:31.828Z,7.80
2022-12-18T14:15:02.943Z,7.60
2022-12-18T14:17:33.362Z,7.90
2022-12-18T14:20:03.845Z,8.20
2022-12-18T14:22:32.250Z,7.30
2022-12-18T14:25:18.151Z,7.70
2022-12-18T14:28:03.389Z,7.90
2022-12-18T14:30:44.377Z,7.60
2022-12-18T14:33:15.057Z,7.20
2022-12-18T14:35:54.770Z,8.90
2022-12-18T14:38:28.153Z,7.10
2022-12-18T14:41:06.092Z,7.60
2022-12-18T14:43:37.566Z,8.40
2022-12-18T14:46:26.964Z,8.40
2022-12-18T14:48:57.479Z,8.20
2022-12-18T14:51:28.681Z,8.70
2022-12-18T14:54:01.507Z,8.20
2022-12-18T14:56:44.217Z,9.90
2022-12-18T14:59:25.933Z,9.70
2022-12-18T15:02:21.459Z,10.60
2022-12-18T15:05:13.367Z,9.40
2022-12-18T15:07:44.342Z,8.80
2022-12-18T15:10:22.310Z,9.00
2022-12-18T15:12:57.665Z,9.20
2022-12-18T15:15:37.115Z,10.70
2022-12-18T15:18:14.118Z,11.10
2022-12-18T15:21:09.867Z,10.90
2022-12-18T15:23:44.872Z,12.20
2022-12-18T15:26:16.695Z,12.20
2022-12-18T15:28:51.363Z,11.90
2022-12-18T15:31:25.750Z,12.60
2022-12-18T15:33:54.190Z,13.40
2022-12-18T15:36:26.321Z,13.40
2022-12-18T15:39:05.358Z,14.40
2022-12-18T15:41:37.741Z,13.10
2022-12-18T15:44:25.793Z,14.00
2022-12-18T15:46:54.104Z,14.70
2022-12-18T15:49:22.396Z,13.60
2022-12-18T15:51:55.065Z,14.60
2022-12-18T15:54:43.845Z,15.50
2022-12-18T15:57:24.751Z,15.40
2022-12-18T15:59:57.516Z,14.50
2022-12-18T16:02:27.178Z,14.80
2022-12-18T16:04:55.888Z,13.00
2022-12-18T16:07:25.006Z,14.70
2022-12-18T16:09:54.327Z,14.70
2022-12-18T16:12:26.652Z,13.60
2022-12-18T16:14:55.008Z,12.90
2022-12-18T16:17:23.495Z,14.10
2022-12-18T16:19:51.826Z,16.40
2022-12-18T16:22:26.673Z,14.90
2022-12-18T16:24:56.849Z,17.20
2022-12-18T16:27:25.986Z,15.40
2022-12-18T16:29:54.511Z,16.80
2022-12-18T16:32:23.672Z,17.10
2022-12-18T16:34:53.025Z,14.30
2022-12-18T16:37:21.308Z,17.20
2022-12-18T16:39:49.684Z,16.20
2022-12-18T16:42:20.705Z,17.50
2022-12-18T16:44:50.347Z,17.50
2022-12-18T16:47:19.889Z,15.90
2022-12-18T16:49:51.869Z,16.70
2022-12-18T16:52:20.796Z,16.70
2022-12-18T16:54:49.184Z,17.90
2022-12-18T16:57:21.073Z,17.30
2022-12-18T16:59:52.164Z,18.80
2022-12-18T17:02:24.433Z,16.20
2022-12-18T17:04:57.562Z,16.10
2022-12-18T17:07:26.899Z,17.00
2022-12-18T17:09:55.787Z,17.30
2022-12-18T17:12:24.425Z,15.90
2022-12-18T17:14:52.774Z,18.20
2022-12-18T17:17:22.837Z,17.70
2022-12-18T17:19:52.782Z,17.80
2022-12-18T17:22:23.500Z,17.70
2022-12-18T17:24:52.033Z,17.00
2022-12-18T17:27:20.530Z,19.10
2022-12-18T17:29:49.377Z,17.90
2022-12-18T17:32:18.367Z,17.20
2022-12-18T17:34:46.890Z,18.10
2022-12-18T17:37:15.817Z,17.00
2022-12-18T17:39:44.386Z,20.00
2022-12-18T17:42:15.557Z,16.90
2022-12-18T17:44:45.211Z,17.50
2022-12-18T17:47:14.051Z,18.70
2022-12-18T17:49:42.413Z,18.70
2022-12-18T17:52:11.048Z,19.10
2022-12-18T17:54:42.175Z,19.50
2022-12-18T17:57:11.225Z,19.00
2022-12-18T17:59:39.843Z,19.40
2022-12-18T18:02:11.890Z,19.90
2022-12-18T18:07:08.865Z,18.90
2022-12-18T18:09:37.166Z,19.00
2022-12-18T18:12:38.198Z,20.30
2022-12-18T18:15:07.250Z,19.90
2022-12-18T18:17:36.603Z,17.80
2022-12-18T18:20:06.312Z,20.00
2022-12-18T18:22:34.820Z,19.60
2022-12-18T18:25:03.883Z,18.00
2022-12-18T18:53:07.892Z,19.00
2022-12-18T18:55:37.658Z,19.50
2022-12-18T18:58:06.128Z,17.30
2022-12-18T19:00:35.863Z,19.80
2022-12-18T19:03:04.876Z,18.60
2022-12-18T19:05:34.251Z,18.60
2022-12-18T19:08:02.919Z,17.80
2022-12-18T19:10:31.472Z,18.70
2022-12-18T19:13:18.395Z,19.10
2022-12-18T19:15:48.545Z,18.60
2022-12-18T19:18:17.654Z,19.00
2022-12-18T19:20:56.091Z,18.90
2022-12-18T19:23:24.847Z,18.00
2022-12-18T19:26:16.815Z,18.40
2022-12-18T19:28:42.494Z,16.70
2022-12-18T19:31:13.768Z,17.90
2022-12-18T19:33:44.871Z,19.40
2022-12-18T19:36:21.037Z,18.30
2022-12-18T19:38:51.096Z,18.60
2022-12-18T19:41:20.594Z,19.60
2022-12-18T19:43:50.818Z,18.70
2022-12-18T19:46:21.814Z,20.70
2022-12-18T19:48:51.056Z,21.80
2022-12-18T19:51:25.671Z,20.70
2022-12-18T19:53:58.911Z,19.70
2022-12-18T19:56:32.710Z,21.20
2022-12-18T19:59:02.383Z,21.60
2022-12-18T20:01:31.633Z,19.90
2022-12-18T20:04:01.010Z,22.30
2022-12-18T20:06:32.998Z,21.80
2022-12-18T20:09:05.151Z,20.90
2022-12-18T20:11:38.377Z,19.20
2022-12-18T20:14:11.704Z,19.90
2022-12-18T20:16:41.766Z,21.20
2022-12-18T20:19:12.854Z,21.20
2022-12-18T20:21:42.331Z,21.30
2022-12-18T20:24:10.899Z,21.10
2022-12-18T20:26:40.676Z,22.20
2022-12-18T20:29:09.288Z,21.10
2022-12-18T20:31:37.840Z,21.50
2022-12-18T20:34:07.064Z,21.00
2022-12-18T20:36:37.553Z,22.30
2022-12-18T20:39:07.636Z,20.40
2022-12-18T20:41:39.321Z,19.80
2022-12-18T20:44:22.236Z,19.50
2022-12-18T20:46:57.179Z,20.70
2022-12-18T20:49:27.155Z,21.40
2022-12-18T20:51:57.786Z,21.70
2022-12-18T20:54:27.896Z,22.10
2022-12-18T20:56:57.461Z,20.90
2022-12-18T20:59:26.459Z,22.90
2022-12-18T21:01:56.047Z,20.70
2022-12-18T21:04:24.714Z,20.30
2022-12-18T21:06:59.134Z,20.70
2022-12-18T21:09:37.929Z,21.60
2022-12-18T21:12:34.990Z,21.90
2022-12-18T21:15:11.509Z,20.40
2022-12-18T21:17:44.832Z,20.70
2022-12-18T21:20:18.025Z,20.40
2022-12-18T21:22:49.269Z,20.50
2022-12-18T21:25:18.106Z,23.80
2022-12-18T21:27:46.660Z,24.20
2022-12-18T21:30:15.538Z,23.80
2022-12-18T21:32:44.443Z,22.50
2022-12-18T21:35:13.067Z,22.40
2022-12-18T21:37:41.567Z,22.60
2022-12-18T21:40:11.177Z,22.20
2022-12-18T21:42:58.427Z,23.00
2022-12-18T21:45:26.950Z,22.10
2022-12-18T21:47:55.491Z,20.90
2022-12-18T21:50:24.088Z,22.60
2022-12-18T21:52:52.663Z,21.10
2022-12-18T21:55:21.292Z,20.80
2022-12-18T21:57:50.363Z,21.10
2022-12-18T22:00:19.773Z,18.00
2022-12-18T22:02:59.904Z,21.10
2022-12-18T22:05:38.819Z,20.80
2022-12-18T22:08:07.713Z,21.80
2022-12-18T22:10:37.244Z,21.10
2022-12-18T22:13:07.551Z,19.60
2022-12-18T22:15:36.146Z,22.10
2022-12-18T22:18:04.824Z,21.40
2022-12-18T22:20:33.808Z,22.10
2022-12-18T22:23:05.596Z,21.20
2022-12-18T22:25:37.315Z,18.40
2022-12-18T22:28:27.069Z,21.10
2022-12-18T22:30:59.521Z,19.60
2022-12-18T22:33:28.574Z,20.20
2022-12-18T22:35:57.287Z,20.30
2022-12-18T22:38:27.052Z,22.80
2022-12-18T22:40:55.580Z,20.80
2022-12-18T22:43:24.500Z,21.10
2022-12-18T22:45:53.176Z,19.90
2022-12-18T22:48:21.852Z,19.70
2022-12-18T22:50:51.146Z,21.10
2022-12-18T22:53:24.698Z,20.70
2022-12-18T22:56:00.567Z,20.30
2022-12-18T22:58:29.238Z,21.10
2022-12-18T23:00:58.050Z,20.20
2022-12-18T23:03:26.625Z,21.80
2022-12-18T23:06:03.757Z,19.50
2022-12-18T23:08:32.846Z,22.30
2022-12-18T23:11:01.825Z,22.30
2022-12-18T23:13:30.612Z,21.50
2022-12-18T23:15:59.175Z,21.10
2022-12-18T23:18:27.683Z,21.10
2022-12-18T23:20:56.212Z,24.10
2022-12-18T23:23:25.165Z,22.30
2022-12-18T23:26:01.025Z,25.40
2022-12-18T23:28:32.013Z,22.60
2022-12-18T23:31:07.651Z,23.20
2022-12-18T23:33:36.439Z,22.30
2022-12-18T23:36:06.433Z,23.30
2022-12-18T23:38:35.577Z,25.40
2022-12-18T23:41:09.678Z,22.30
2022-12-18T23:43:38.424Z,24.20
2022-12-18T23:46:18.116Z,24.10
2022-12-18T23:48:47.594Z,22.90
2022-12-18T23:51:19.758Z,22.70
2022-12-18T23:53:48.357Z,23.10
2022-12-18T23:56:16.908Z,23.50
2022-12-18T23:58:45.511Z,25.10
